sensor_id;sensor_type;location;lat;lon;timestamp;P1;durP1;ratioP1;P2;durP2;ratioP2
78750;SDS011;68070;50.954;11.060;2024-01-06T00:00:09;3.40;;;1.50;;
78750;SDS011;68070;50.954;11.060;2024-01-06T00:02:38;4.40;;;1.70;;
78750;SDS011;68070;50.954;11.060;2024-01-06T00:05:03;2.60;;;1.30;;
78750;SDS011;68070;50.954;11.060;2024-01-06T00:09:53;3.80;;;1.70;;
78750;SDS011;68070;50.954;11.060;2024-01-06T00:12:19;2.80;;;1.70;;
78750;SDS011;68070;50.954;11.060;2024-01-06T00:17:10;7.20;;;2.00;;
78750;SDS011;68070;50.954;11.060;2024-01-06T00:19:36;3.10;;;1.80;;
78750;SDS011;68070;50.954;11.060;2024-01-06T00:22:01;2.70;;;1.60;;
78750;SDS011;68070;50.954;11.060;2024-01-06T00:24:26;4.50;;;1.40;;
78750;SDS011;68070;50.954;11.060;2024-01-06T00:26:51;4.10;;;1.90;;
78750;SDS011;68070;50.954;11.060;2024-01-06T00:29:16;4.80;;;2.40;;
78750;SDS011;68070;50.954;11.060;2024-01-06T00:31:42;4.10;;;1.80;;
78750;SDS011;68070;50.954;11.060;2024-01-06T00:34:07;6.00;;;1.70;;
78750;SDS011;68070;50.954;11.060;2024-01-06T00:36:32;2.80;;;1.50;;
78750;SDS011;68070;50.954;11.060;2024-01-06T00:38:57;7.30;;;2.90;;
78750;SDS011;68070;50.954;11.060;2024-01-06T00:41:22;5.20;;;2.30;;
78750;SDS011;68070;50.954;11.060;2024-01-06T00:43:48;6.40;;;2.60;;
78750;SDS011;68070;50.954;11.060;2024-01-06T00:46:13;2.70;;;1.60;;
78750;SDS011;68070;50.954;11.060;2024-01-06T00:48:38;2.20;;;1.20;;
78750;SDS011;68070;50.954;11.060;2024-01-06T00:51:03;4.80;;;1.80;;
78750;SDS011;68070;50.954;11.060;2024-01-06T00:53:28;2.30;;;1.50;;
78750;SDS011;68070;50.954;11.060;2024-01-06T00:55:54;6.30;;;1.70;;
78750;SDS011;68070;50.954;11.060;2024-01-06T00:58:19;2.90;;;1.40;;
78750;SDS011;68070;50.954;11.060;2024-01-06T01:03:09;2.00;;;1.30;;
78750;SDS011;68070;50.954;11.060;2024-01-06T01:08:00;6.30;;;2.70;;
78750;SDS011;68070;50.954;11.060;2024-01-06T01:10:25;3.40;;;1.60;;
78750;SDS011;68070;50.954;11.060;2024-01-06T01:12:50;3.80;;;2.50;;
78750;SDS011;68070;50.954;11.060;2024-01-06T01:15:15;2.90;;;1.90;;
78750;SDS011;68070;50.954;11.060;2024-01-06T01:17:41;5.80;;;1.60;;
78750;SDS011;68070;50.954;11.060;2024-01-06T01:22:31;1.60;;;1.40;;
78750;SDS011;68070;50.954;11.060;2024-01-06T01:24:56;1.30;;;1.20;;
78750;SDS011;68070;50.954;11.060;2024-01-06T01:27:22;3.40;;;1.30;;
78750;SDS011;68070;50.954;11.060;2024-01-06T01:29:48;7.90;;;1.80;;
78750;SDS011;68070;50.954;11.060;2024-01-06T01:32:17;5.90;;;1.50;;
78750;SDS011;68070;50.954;11.060;2024-01-06T01:34:42;2.80;;;1.70;;
78750;SDS011;68070;50.954;11.060;2024-01-06T01:37:08;2.20;;;1.30;;
78750;SDS011;68070;50.954;11.060;2024-01-06T01:39:33;3.00;;;1.90;;
78750;SDS011;68070;50.954;11.060;2024-01-06T01:41:59;4.30;;;1.70;;
78750;SDS011;68070;50.954;11.060;2024-01-06T01:44:24;2.60;;;1.40;;
78750;SDS011;68070;50.954;11.060;2024-01-06T01:46:49;2.30;;;1.40;;
78750;SDS011;68070;50.954;11.060;2024-01-06T01:49:14;3.40;;;1.10;;
78750;SDS011;68070;50.954;11.060;2024-01-06T01:51:40;3.30;;;1.60;;
78750;SDS011;68070;50.954;11.060;2024-01-06T01:54:08;2.50;;;1.40;;
78750;SDS011;68070;50.954;11.060;2024-01-06T01:56:33;3.30;;;1.40;;
78750;SDS011;68070;50.954;11.060;2024-01-06T01:59:00;5.40;;;1.60;;
78750;SDS011;68070;50.954;11.060;2024-01-06T02:01:26;3.90;;;1.50;;
78750;SDS011;68070;50.954;11.060;2024-01-06T02:03:52;5.10;;;1.30;;
78750;SDS011;68070;50.954;11.060;2024-01-06T02:06:17;5.50;;;1.70;;
78750;SDS011;68070;50.954;11.060;2024-01-06T02:08:42;2.90;;;1.90;;
78750;SDS011;68070;50.954;11.060;2024-01-06T02:11:07;4.80;;;2.00;;
78750;SDS011;68070;50.954;11.060;2024-01-06T02:13:33;7.60;;;2.60;;
78750;SDS011;68070;50.954;11.060;2024-01-06T02:16:00;6.20;;;1.90;;
78750;SDS011;68070;50.954;11.060;2024-01-06T02:18:25;2.90;;;2.00;;
78750;SDS011;68070;50.954;11.060;2024-01-06T02:20:50;3.40;;;1.70;;
78750;SDS011;68070;50.954;11.060;2024-01-06T02:23:17;3.10;;;1.50;;
78750;SDS011;68070;50.954;11.060;2024-01-06T02:25:43;1.60;;;1.10;;
78750;SDS011;68070;50.954;11.060;2024-01-06T02:28:08;2.40;;;1.40;;
78750;SDS011;68070;50.954;11.060;2024-01-06T02:30:33;1.90;;;1.10;;
78750;SDS011;68070;50.954;11.060;2024-01-06T02:32:59;5.10;;;1.60;;
78750;SDS011;68070;50.954;11.060;2024-01-06T02:35:24;3.10;;;1.40;;
78750;SDS011;68070;50.954;11.060;2024-01-06T02:37:49;8.30;;;1.70;;
78750;SDS011;68070;50.954;11.060;2024-01-06T02:40:14;5.50;;;1.80;;
78750;SDS011;68070;50.954;11.060;2024-01-06T02:42:39;5.00;;;1.20;;
78750;SDS011;68070;50.954;11.060;2024-01-06T02:45:06;2.30;;;1.30;;
78750;SDS011;68070;50.954;11.060;2024-01-06T02:47:31;3.80;;;1.40;;
78750;SDS011;68070;50.954;11.060;2024-01-06T02:49:56;3.60;;;1.60;;
78750;SDS011;68070;50.954;11.060;2024-01-06T02:52:22;2.00;;;1.20;;
78750;SDS011;68070;50.954;11.060;2024-01-06T02:54:47;3.70;;;1.70;;
78750;SDS011;68070;50.954;11.060;2024-01-06T02:57:13;3.40;;;1.50;;
78750;SDS011;68070;50.954;11.060;2024-01-06T02:59:39;1.70;;;1.00;;
78750;SDS011;68070;50.954;11.060;2024-01-06T03:02:04;1.40;;;1.00;;
78750;SDS011;68070;50.954;11.060;2024-01-06T03:04:29;2.40;;;1.30;;
78750;SDS011;68070;50.954;11.060;2024-01-06T03:06:54;2.70;;;1.30;;
78750;SDS011;68070;50.954;11.060;2024-01-06T03:09:20;2.60;;;1.70;;
78750;SDS011;68070;50.954;11.060;2024-01-06T03:11:45;2.70;;;1.30;;
78750;SDS011;68070;50.954;11.060;2024-01-06T03:14:10;3.20;;;1.60;;
78750;SDS011;68070;50.954;11.060;2024-01-06T03:16:36;3.80;;;1.50;;
78750;SDS011;68070;50.954;11.060;2024-01-06T03:19:01;3.80;;;1.70;;
78750;SDS011;68070;50.954;11.060;2024-01-06T03:21:26;3.40;;;1.20;;
78750;SDS011;68070;50.954;11.060;2024-01-06T03:23:51;1.60;;;1.10;;
78750;SDS011;68070;50.954;11.060;2024-01-06T03:26:17;2.90;;;1.30;;
78750;SDS011;68070;50.954;11.060;2024-01-06T03:31:08;2.20;;;1.50;;
78750;SDS011;68070;50.954;11.060;2024-01-06T03:35:58;10.10;;;1.90;;
78750;SDS011;68070;50.954;11.060;2024-01-06T03:38:23;5.20;;;1.40;;
78750;SDS011;68070;50.954;11.060;2024-01-06T03:40:49;1.70;;;1.20;;
78750;SDS011;68070;50.954;11.060;2024-01-06T03:43:14;4.00;;;1.10;;
78750;SDS011;68070;50.954;11.060;2024-01-06T03:45:39;2.90;;;1.40;;
78750;SDS011;68070;50.954;11.060;2024-01-06T03:48:04;2.90;;;1.50;;
78750;SDS011;68070;50.954;11.060;2024-01-06T03:50:30;3.70;;;1.50;;
78750;SDS011;68070;50.954;11.060;2024-01-06T03:52:55;1.70;;;1.20;;
78750;SDS011;68070;50.954;11.060;2024-01-06T03:55:20;2.90;;;1.40;;
78750;SDS011;68070;50.954;11.060;2024-01-06T03:57:45;3.40;;;1.20;;
78750;SDS011;68070;50.954;11.060;2024-01-06T04:00:10;3.00;;;1.30;;
78750;SDS011;68070;50.954;11.060;2024-01-06T04:02:36;1.00;;;0.80;;
78750;SDS011;68070;50.954;11.060;2024-01-06T04:05:01;3.60;;;1.40;;
78750;SDS011;68070;50.954;11.060;2024-01-06T04:07:27;2.50;;;1.30;;
78750;SDS011;68070;50.954;11.060;2024-01-06T04:09:52;2.70;;;1.40;;
78750;SDS011;68070;50.954;11.060;2024-01-06T04:12:17;6.10;;;1.90;;
78750;SDS011;68070;50.954;11.060;2024-01-06T04:17:08;2.00;;;1.10;;
78750;SDS011;68070;50.954;11.060;2024-01-06T04:19:33;2.30;;;1.50;;
78750;SDS011;68070;50.954;11.060;2024-01-06T04:21:59;2.60;;;1.50;;
78750;SDS011;68070;50.954;11.060;2024-01-06T04:24:24;4.10;;;1.50;;
78750;SDS011;68070;50.954;11.060;2024-01-06T04:26:49;3.80;;;1.30;;
78750;SDS011;68070;50.954;11.060;2024-01-06T04:29:14;4.00;;;1.30;;
78750;SDS011;68070;50.954;11.060;2024-01-06T04:31:43;3.20;;;1.20;;
78750;SDS011;68070;50.954;11.060;2024-01-06T04:34:08;5.20;;;1.40;;
78750;SDS011;68070;50.954;11.060;2024-01-06T04:36:33;2.60;;;1.40;;
78750;SDS011;68070;50.954;11.060;2024-01-06T04:38:58;2.60;;;1.10;;
78750;SDS011;68070;50.954;11.060;2024-01-06T04:41:23;5.00;;;1.90;;
78750;SDS011;68070;50.954;11.060;2024-01-06T04:43:49;3.90;;;1.10;;
78750;SDS011;68070;50.954;11.060;2024-01-06T04:46:14;3.50;;;1.10;;
78750;SDS011;68070;50.954;11.060;2024-01-06T04:51:04;3.40;;;1.30;;
78750;SDS011;68070;50.954;11.060;2024-01-06T04:53:30;5.60;;;1.60;;
78750;SDS011;68070;50.954;11.060;2024-01-06T04:55:56;1.80;;;1.40;;
78750;SDS011;68070;50.954;11.060;2024-01-06T04:58:21;3.50;;;1.60;;
78750;SDS011;68070;50.954;11.060;2024-01-06T05:00:46;3.10;;;1.50;;
78750;SDS011;68070;50.954;11.060;2024-01-06T05:05:37;4.30;;;1.60;;
78750;SDS011;68070;50.954;11.060;2024-01-06T05:08:02;3.90;;;1.80;;
78750;SDS011;68070;50.954;11.060;2024-01-06T05:10:28;2.30;;;1.40;;
78750;SDS011;68070;50.954;11.060;2024-01-06T05:12:53;2.90;;;1.40;;
78750;SDS011;68070;50.954;11.060;2024-01-06T05:15:18;4.90;;;1.60;;
78750;SDS011;68070;50.954;11.060;2024-01-06T05:17:43;2.90;;;1.40;;
78750;SDS011;68070;50.954;11.060;2024-01-06T05:20:09;2.60;;;1.10;;
78750;SDS011;68070;50.954;11.060;2024-01-06T05:22:34;3.70;;;1.50;;
78750;SDS011;68070;50.954;11.060;2024-01-06T05:24:59;3.40;;;1.50;;
78750;SDS011;68070;50.954;11.060;2024-01-06T05:27:24;5.00;;;1.80;;
78750;SDS011;68070;50.954;11.060;2024-01-06T05:29:50;7.90;;;1.80;;
78750;SDS011;68070;50.954;11.060;2024-01-06T05:32:16;2.90;;;1.70;;
78750;SDS011;68070;50.954;11.060;2024-01-06T05:34:42;2.70;;;1.50;;
78750;SDS011;68070;50.954;11.060;2024-01-06T05:37:09;6.70;;;1.70;;
78750;SDS011;68070;50.954;11.060;2024-01-06T05:39:34;3.30;;;1.70;;
78750;SDS011;68070;50.954;11.060;2024-01-06T05:42:02;2.50;;;1.70;;
78750;SDS011;68070;50.954;11.060;2024-01-06T05:44:27;3.30;;;1.40;;
78750;SDS011;68070;50.954;11.060;2024-01-06T05:46:52;3.70;;;1.80;;
78750;SDS011;68070;50.954;11.060;2024-01-06T05:49:17;4.50;;;1.70;;
78750;SDS011;68070;50.954;11.060;2024-01-06T05:51:46;3.10;;;1.40;;
78750;SDS011;68070;50.954;11.060;2024-01-06T05:54:11;3.10;;;1.40;;
78750;SDS011;68070;50.954;11.060;2024-01-06T05:56:36;2.60;;;1.40;;
78750;SDS011;68070;50.954;11.060;2024-01-06T05:59:01;3.60;;;1.60;;
78750;SDS011;68070;50.954;11.060;2024-01-06T06:01:28;3.90;;;2.20;;
78750;SDS011;68070;50.954;11.060;2024-01-06T06:03:53;4.50;;;1.60;;
78750;SDS011;68070;50.954;11.060;2024-01-06T06:06:18;3.00;;;1.50;;
78750;SDS011;68070;50.954;11.060;2024-01-06T06:11:08;2.30;;;1.60;;
78750;SDS011;68070;50.954;11.060;2024-01-06T06:13:38;3.50;;;1.20;;
78750;SDS011;68070;50.954;11.060;2024-01-06T06:16:04;4.40;;;1.70;;
78750;SDS011;68070;50.954;11.060;2024-01-06T06:18:29;2.20;;;1.30;;
78750;SDS011;68070;50.954;11.060;2024-01-06T06:20:54;5.10;;;2.30;;
78750;SDS011;68070;50.954;11.060;2024-01-06T06:25:45;1.80;;;1.40;;
78750;SDS011;68070;50.954;11.060;2024-01-06T06:28:11;4.40;;;1.70;;
78750;SDS011;68070;50.954;11.060;2024-01-06T06:30:36;4.10;;;1.90;;
78750;SDS011;68070;50.954;11.060;2024-01-06T06:33:01;3.10;;;1.50;;
78750;SDS011;68070;50.954;11.060;2024-01-06T06:35:26;3.90;;;1.80;;
78750;SDS011;68070;50.954;11.060;2024-01-06T06:37:51;6.00;;;2.70;;
78750;SDS011;68070;50.954;11.060;2024-01-06T06:40:16;6.30;;;2.20;;
78750;SDS011;68070;50.954;11.060;2024-01-06T06:42:43;3.30;;;1.60;;
78750;SDS011;68070;50.954;11.060;2024-01-06T06:45:08;5.50;;;3.50;;
78750;SDS011;68070;50.954;11.060;2024-01-06T06:47:36;9.60;;;5.80;;
78750;SDS011;68070;50.954;11.060;2024-01-06T06:50:01;4.20;;;2.40;;
78750;SDS011;68070;50.954;11.060;2024-01-06T06:52:27;2.90;;;1.70;;
78750;SDS011;68070;50.954;11.060;2024-01-06T06:54:52;5.10;;;1.80;;
78750;SDS011;68070;50.954;11.060;2024-01-06T06:57:18;4.80;;;2.80;;
78750;SDS011;68070;50.954;11.060;2024-01-06T06:59:43;4.90;;;3.00;;
78750;SDS011;68070;50.954;11.060;2024-01-06T07:02:09;3.00;;;1.70;;
78750;SDS011;68070;50.954;11.060;2024-01-06T07:04:34;3.90;;;3.10;;
78750;SDS011;68070;50.954;11.060;2024-01-06T07:06:59;2.90;;;2.00;;
78750;SDS011;68070;50.954;11.060;2024-01-06T07:09:25;3.00;;;2.00;;
78750;SDS011;68070;50.954;11.060;2024-01-06T07:11:50;3.90;;;2.60;;
78750;SDS011;68070;50.954;11.060;2024-01-06T07:16:40;4.50;;;2.10;;
78750;SDS011;68070;50.954;11.060;2024-01-06T07:19:05;4.30;;;1.80;;
78750;SDS011;68070;50.954;11.060;2024-01-06T07:21:31;2.30;;;1.50;;
78750;SDS011;68070;50.954;11.060;2024-01-06T07:23:56;2.40;;;1.40;;
78750;SDS011;68070;50.954;11.060;2024-01-06T07:26:22;4.50;;;1.80;;
78750;SDS011;68070;50.954;11.060;2024-01-06T07:28:47;3.90;;;1.80;;
78750;SDS011;68070;50.954;11.060;2024-01-06T07:31:12;5.20;;;1.80;;
78750;SDS011;68070;50.954;11.060;2024-01-06T07:33:38;3.80;;;1.70;;
78750;SDS011;68070;50.954;11.060;2024-01-06T07:36:04;2.30;;;1.70;;
78750;SDS011;68070;50.954;11.060;2024-01-06T07:38:30;2.60;;;1.60;;
78750;SDS011;68070;50.954;11.060;2024-01-06T07:40:56;4.00;;;1.60;;
78750;SDS011;68070;50.954;11.060;2024-01-06T07:43:21;2.40;;;1.50;;
78750;SDS011;68070;50.954;11.060;2024-01-06T07:45:46;3.70;;;1.70;;
78750;SDS011;68070;50.954;11.060;2024-01-06T07:50:37;2.50;;;1.80;;
78750;SDS011;68070;50.954;11.060;2024-01-06T07:53:03;3.70;;;2.00;;
78750;SDS011;68070;50.954;11.060;2024-01-06T07:57:54;8.60;;;4.30;;
78750;SDS011;68070;50.954;11.060;2024-01-06T08:00:19;5.80;;;2.80;;
78750;SDS011;68070;50.954;11.060;2024-01-06T08:05:09;33.00;;;15.10;;
78750;SDS011;68070;50.954;11.060;2024-01-06T08:10:00;12.50;;;5.70;;
78750;SDS011;68070;50.954;11.060;2024-01-06T08:12:26;25.60;;;11.50;;
78750;SDS011;68070;50.954;11.060;2024-01-06T08:14:51;8.70;;;4.90;;
78750;SDS011;68070;50.954;11.060;2024-01-06T08:17:24;10.30;;;5.90;;
78750;SDS011;68070;50.954;11.060;2024-01-06T08:19:49;5.60;;;3.00;;
78750;SDS011;68070;50.954;11.060;2024-01-06T08:22:15;11.40;;;5.30;;
78750;SDS011;68070;50.954;11.060;2024-01-06T08:24:40;12.10;;;5.40;;
78750;SDS011;68070;50.954;11.060;2024-01-06T08:27:05;11.00;;;5.90;;
78750;SDS011;68070;50.954;11.060;2024-01-06T08:29:30;7.70;;;4.10;;
78750;SDS011;68070;50.954;11.060;2024-01-06T08:34:21;4.00;;;2.60;;
78750;SDS011;68070;50.954;11.060;2024-01-06T08:39:12;5.80;;;2.60;;
78750;SDS011;68070;50.954;11.060;2024-01-06T08:41:38;4.70;;;2.30;;
78750;SDS011;68070;50.954;11.060;2024-01-06T08:44:03;4.10;;;2.60;;
78750;SDS011;68070;50.954;11.060;2024-01-06T08:46:29;5.10;;;3.30;;
78750;SDS011;68070;50.954;11.060;2024-01-06T08:48:55;5.40;;;3.60;;
78750;SDS011;68070;50.954;11.060;2024-01-06T08:51:20;5.40;;;2.80;;
78750;SDS011;68070;50.954;11.060;2024-01-06T08:53:46;5.90;;;2.40;;
78750;SDS011;68070;50.954;11.060;2024-01-06T08:56:11;6.40;;;3.00;;
78750;SDS011;68070;50.954;11.060;2024-01-06T08:58:36;4.50;;;3.40;;
78750;SDS011;68070;50.954;11.060;2024-01-06T09:03:26;4.20;;;2.00;;
78750;SDS011;68070;50.954;11.060;2024-01-06T09:05:52;11.60;;;5.20;;
78750;SDS011;68070;50.954;11.060;2024-01-06T09:08:17;7.50;;;3.10;;
78750;SDS011;68070;50.954;11.060;2024-01-06T09:10:43;5.20;;;3.10;;
78750;SDS011;68070;50.954;11.060;2024-01-06T09:13:09;6.50;;;3.40;;
78750;SDS011;68070;50.954;11.060;2024-01-06T09:15:34;5.60;;;3.30;;
78750;SDS011;68070;50.954;11.060;2024-01-06T09:17:59;5.60;;;3.20;;
78750;SDS011;68070;50.954;11.060;2024-01-06T09:20:25;4.80;;;3.00;;
78750;SDS011;68070;50.954;11.060;2024-01-06T09:25:15;4.40;;;2.70;;
78750;SDS011;68070;50.954;11.060;2024-01-06T09:30:06;3.40;;;2.40;;
78750;SDS011;68070;50.954;11.060;2024-01-06T09:32:33;4.20;;;3.00;;
78750;SDS011;68070;50.954;11.060;2024-01-06T09:34:59;6.70;;;3.00;;
78750;SDS011;68070;50.954;11.060;2024-01-06T09:37:24;6.80;;;2.80;;
78750;SDS011;68070;50.954;11.060;2024-01-06T09:42:15;4.60;;;2.20;;
78750;SDS011;68070;50.954;11.060;2024-01-06T09:44:41;3.90;;;1.80;;
78750;SDS011;68070;50.954;11.060;2024-01-06T09:47:06;4.50;;;2.20;;
78750;SDS011;68070;50.954;11.060;2024-01-06T09:49:33;3.80;;;1.60;;
78750;SDS011;68070;50.954;11.060;2024-01-06T09:51:59;4.70;;;1.90;;
78750;SDS011;68070;50.954;11.060;2024-01-06T09:54:24;5.50;;;2.20;;
78750;SDS011;68070;50.954;11.060;2024-01-06T09:56:50;3.20;;;1.90;;
78750;SDS011;68070;50.954;11.060;2024-01-06T09:59:15;4.20;;;2.00;;
78750;SDS011;68070;50.954;11.060;2024-01-06T10:01:41;3.00;;;2.00;;
78750;SDS011;68070;50.954;11.060;2024-01-06T10:04:06;2.00;;;1.40;;
78750;SDS011;68070;50.954;11.060;2024-01-06T10:06:32;5.50;;;2.40;;
78750;SDS011;68070;50.954;11.060;2024-01-06T10:08:57;3.40;;;1.80;;
78750;SDS011;68070;50.954;11.060;2024-01-06T10:13:49;4.90;;;1.80;;
78750;SDS011;68070;50.954;11.060;2024-01-06T10:16:15;2.90;;;1.70;;
78750;SDS011;68070;50.954;11.060;2024-01-06T10:21:05;17.80;;;6.00;;
78750;SDS011;68070;50.954;11.060;2024-01-06T10:23:31;5.80;;;1.90;;
78750;SDS011;68070;50.954;11.060;2024-01-06T10:25:57;4.10;;;2.00;;
78750;SDS011;68070;50.954;11.060;2024-01-06T10:28:22;4.90;;;1.90;;
78750;SDS011;68070;50.954;11.060;2024-01-06T10:30:48;4.40;;;1.70;;
78750;SDS011;68070;50.954;11.060;2024-01-06T10:33:13;4.30;;;1.70;;
78750;SDS011;68070;50.954;11.060;2024-01-06T10:35:40;3.50;;;1.70;;
78750;SDS011;68070;50.954;11.060;2024-01-06T10:38:06;3.50;;;1.90;;
78750;SDS011;68070;50.954;11.060;2024-01-06T10:40:32;6.40;;;1.80;;
78750;SDS011;68070;50.954;11.060;2024-01-06T10:45:26;2.00;;;1.50;;
78750;SDS011;68070;50.954;11.060;2024-01-06T10:47:53;3.70;;;1.90;;
78750;SDS011;68070;50.954;11.060;2024-01-06T10:50:18;6.30;;;1.80;;
78750;SDS011;68070;50.954;11.060;2024-01-06T10:52:44;3.80;;;1.90;;
78750;SDS011;68070;50.954;11.060;2024-01-06T10:55:12;4.30;;;2.20;;
78750;SDS011;68070;50.954;11.060;2024-01-06T10:57:39;4.80;;;1.90;;
78750;SDS011;68070;50.954;11.060;2024-01-06T11:00:08;5.40;;;2.20;;
78750;SDS011;68070;50.954;11.060;2024-01-06T11:02:35;4.20;;;2.00;;
78750;SDS011;68070;50.954;11.060;2024-01-06T11:05:00;7.00;;;2.40;;
78750;SDS011;68070;50.954;11.060;2024-01-06T11:07:25;3.30;;;1.90;;
78750;SDS011;68070;50.954;11.060;2024-01-06T11:10:11;2.90;;;1.80;;
78750;SDS011;68070;50.954;11.060;2024-01-06T11:12:37;5.40;;;2.20;;
78750;SDS011;68070;50.954;11.060;2024-01-06T11:15:02;4.10;;;2.00;;
78750;SDS011;68070;50.954;11.060;2024-01-06T11:20:13;3.80;;;1.90;;
78750;SDS011;68070;50.954;11.060;2024-01-06T11:22:39;6.80;;;2.40;;
78750;SDS011;68070;50.954;11.060;2024-01-06T11:27:31;5.00;;;2.80;;
78750;SDS011;68070;50.954;11.060;2024-01-06T11:30:00;3.70;;;2.30;;
78750;SDS011;68070;50.954;11.060;2024-01-06T11:32:30;5.90;;;2.40;;
78750;SDS011;68070;50.954;11.060;2024-01-06T11:35:04;5.20;;;2.10;;
78750;SDS011;68070;50.954;11.060;2024-01-06T11:40:02;4.50;;;2.60;;
78750;SDS011;68070;50.954;11.060;2024-01-06T11:42:31;5.40;;;2.50;;
78750;SDS011;68070;50.954;11.060;2024-01-06T11:44:57;4.40;;;2.20;;
78750;SDS011;68070;50.954;11.060;2024-01-06T11:47:26;3.90;;;2.10;;
78750;SDS011;68070;50.954;11.060;2024-01-06T11:49:54;3.20;;;2.20;;
78750;SDS011;68070;50.954;11.060;2024-01-06T11:52:20;5.60;;;2.40;;
78750;SDS011;68070;50.954;11.060;2024-01-06T11:54:45;4.80;;;2.50;;
78750;SDS011;68070;50.954;11.060;2024-01-06T11:57:11;6.10;;;2.60;;
78750;SDS011;68070;50.954;11.060;2024-01-06T11:59:36;4.20;;;2.30;;
78750;SDS011;68070;50.954;11.060;2024-01-06T12:02:01;4.90;;;2.10;;
78750;SDS011;68070;50.954;11.060;2024-01-06T12:04:26;4.30;;;2.90;;
78750;SDS011;68070;50.954;11.060;2024-01-06T12:06:52;4.70;;;2.10;;
78750;SDS011;68070;50.954;11.060;2024-01-06T12:09:19;2.90;;;1.80;;
78750;SDS011;68070;50.954;11.060;2024-01-06T12:11:44;5.30;;;2.30;;
78750;SDS011;68070;50.954;11.060;2024-01-06T12:14:12;6.10;;;2.50;;
78750;SDS011;68070;50.954;11.060;2024-01-06T12:16:37;7.10;;;3.20;;
78750;SDS011;68070;50.954;11.060;2024-01-06T12:21:28;5.00;;;2.30;;
78750;SDS011;68070;50.954;11.060;2024-01-06T12:23:54;4.00;;;2.20;;
78750;SDS011;68070;50.954;11.060;2024-01-06T12:26:19;4.40;;;2.00;;
78750;SDS011;68070;50.954;11.060;2024-01-06T12:28:45;4.90;;;2.10;;
78750;SDS011;68070;50.954;11.060;2024-01-06T12:31:11;3.10;;;2.00;;
78750;SDS011;68070;50.954;11.060;2024-01-06T12:33:38;3.60;;;2.00;;
78750;SDS011;68070;50.954;11.060;2024-01-06T12:36:04;4.00;;;2.40;;
78750;SDS011;68070;50.954;11.060;2024-01-06T12:38:29;5.20;;;2.70;;
78750;SDS011;68070;50.954;11.060;2024-01-06T12:40:55;5.00;;;2.20;;
78750;SDS011;68070;50.954;11.060;2024-01-06T12:43:20;6.00;;;2.70;;
78750;SDS011;68070;50.954;11.060;2024-01-06T12:48:12;6.50;;;3.20;;
78750;SDS011;68070;50.954;11.060;2024-01-06T12:53:02;5.00;;;2.90;;
78750;SDS011;68070;50.954;11.060;2024-01-06T12:55:27;6.60;;;2.90;;
78750;SDS011;68070;50.954;11.060;2024-01-06T12:57:53;7.20;;;2.60;;
78750;SDS011;68070;50.954;11.060;2024-01-06T13:00:19;4.20;;;2.30;;
78750;SDS011;68070;50.954;11.060;2024-01-06T13:02:44;5.60;;;2.50;;
78750;SDS011;68070;50.954;11.060;2024-01-06T13:05:09;5.70;;;2.50;;
78750;SDS011;68070;50.954;11.060;2024-01-06T13:07:35;3.20;;;2.30;;
78750;SDS011;68070;50.954;11.060;2024-01-06T13:10:00;4.50;;;2.60;;
78750;SDS011;68070;50.954;11.060;2024-01-06T13:14:52;4.00;;;2.60;;
78750;SDS011;68070;50.954;11.060;2024-01-06T13:17:17;5.40;;;2.60;;
78750;SDS011;68070;50.954;11.060;2024-01-06T13:22:07;6.30;;;2.40;;
78750;SDS011;68070;50.954;11.060;2024-01-06T13:26:57;4.10;;;2.60;;
78750;SDS011;68070;50.954;11.060;2024-01-06T13:29:24;5.70;;;2.70;;
78750;SDS011;68070;50.954;11.060;2024-01-06T13:31:49;4.70;;;2.70;;
78750;SDS011;68070;50.954;11.060;2024-01-06T13:34:14;6.70;;;3.00;;
78750;SDS011;68070;50.954;11.060;2024-01-06T13:39:05;4.40;;;3.10;;
78750;SDS011;68070;50.954;11.060;2024-01-06T13:41:31;5.00;;;2.90;;
78750;SDS011;68070;50.954;11.060;2024-01-06T13:43:57;4.90;;;2.80;;
78750;SDS011;68070;50.954;11.060;2024-01-06T13:48:48;3.70;;;2.40;;
78750;SDS011;68070;50.954;11.060;2024-01-06T13:51:13;6.60;;;2.80;;
78750;SDS011;68070;50.954;11.060;2024-01-06T13:53:39;4.30;;;2.60;;
78750;SDS011;68070;50.954;11.060;2024-01-06T13:58:29;7.00;;;2.70;;
78750;SDS011;68070;50.954;11.060;2024-01-06T14:03:20;3.70;;;2.40;;
78750;SDS011;68070;50.954;11.060;2024-01-06T14:05:46;5.20;;;2.40;;
78750;SDS011;68070;50.954;11.060;2024-01-06T14:10:39;5.00;;;2.50;;
78750;SDS011;68070;50.954;11.060;2024-01-06T14:15:29;7.20;;;3.70;;
78750;SDS011;68070;50.954;11.060;2024-01-06T14:17:56;8.60;;;3.60;;
78750;SDS011;68070;50.954;11.060;2024-01-06T14:20:21;8.90;;;3.80;;
78750;SDS011;68070;50.954;11.060;2024-01-06T14:25:12;6.40;;;3.60;;
78750;SDS011;68070;50.954;11.060;2024-01-06T14:27:37;6.00;;;3.20;;
78750;SDS011;68070;50.954;11.060;2024-01-06T14:30:03;8.40;;;4.30;;
78750;SDS011;68070;50.954;11.060;2024-01-06T14:32:28;5.20;;;3.50;;
78750;SDS011;68070;50.954;11.060;2024-01-06T14:34:54;8.90;;;4.20;;
78750;SDS011;68070;50.954;11.060;2024-01-06T14:37:19;5.10;;;2.80;;
78750;SDS011;68070;50.954;11.060;2024-01-06T14:42:10;4.80;;;3.00;;
78750;SDS011;68070;50.954;11.060;2024-01-06T14:44:35;5.90;;;3.20;;
78750;SDS011;68070;50.954;11.060;2024-01-06T14:49:26;7.40;;;2.80;;
78750;SDS011;68070;50.954;11.060;2024-01-06T14:54:16;8.70;;;4.00;;
78750;SDS011;68070;50.954;11.060;2024-01-06T14:59:07;5.60;;;2.60;;
78750;SDS011;68070;50.954;11.060;2024-01-06T15:01:32;8.20;;;3.30;;
78750;SDS011;68070;50.954;11.060;2024-01-06T15:06:23;6.60;;;3.70;;
78750;SDS011;68070;50.954;11.060;2024-01-06T15:08:48;6.50;;;3.10;;
78750;SDS011;68070;50.954;11.060;2024-01-06T15:13:38;5.10;;;2.70;;
78750;SDS011;68070;50.954;11.060;2024-01-06T15:18:29;4.50;;;3.10;;
78750;SDS011;68070;50.954;11.060;2024-01-06T15:20:54;7.20;;;4.00;;
78750;SDS011;68070;50.954;11.060;2024-01-06T15:25:45;8.20;;;4.30;;
78750;SDS011;68070;50.954;11.060;2024-01-06T15:28:10;7.80;;;4.00;;
78750;SDS011;68070;50.954;11.060;2024-01-06T15:30:35;6.80;;;4.00;;
78750;SDS011;68070;50.954;11.060;2024-01-06T15:35:26;6.60;;;3.50;;
78750;SDS011;68070;50.954;11.060;2024-01-06T15:37:51;10.50;;;4.00;;
78750;SDS011;68070;50.954;11.060;2024-01-06T15:40:16;6.00;;;4.40;;
78750;SDS011;68070;50.954;11.060;2024-01-06T15:45:07;8.50;;;4.60;;
78750;SDS011;68070;50.954;11.060;2024-01-06T15:47:33;6.90;;;4.60;;
78750;SDS011;68070;50.954;11.060;2024-01-06T15:52:23;5.80;;;3.70;;
78750;SDS011;68070;50.954;11.060;2024-01-06T15:57:14;7.60;;;4.60;;
78750;SDS011;68070;50.954;11.060;2024-01-06T15:59:39;12.20;;;5.20;;
78750;SDS011;68070;50.954;11.060;2024-01-06T16:02:04;7.40;;;4.40;;
78750;SDS011;68070;50.954;11.060;2024-01-06T16:06:55;7.80;;;4.30;;
78750;SDS011;68070;50.954;11.060;2024-01-06T16:09:22;7.70;;;4.60;;
78750;SDS011;68070;50.954;11.060;2024-01-06T16:11:50;6.00;;;4.00;;
78750;SDS011;68070;50.954;11.060;2024-01-06T16:14:16;9.80;;;5.40;;
78750;SDS011;68070;50.954;11.060;2024-01-06T16:16:41;7.60;;;4.40;;
78750;SDS011;68070;50.954;11.060;2024-01-06T16:19:06;11.90;;;5.80;;
78750;SDS011;68070;50.954;11.060;2024-01-06T16:23:57;8.70;;;4.60;;
78750;SDS011;68070;50.954;11.060;2024-01-06T16:26:22;8.40;;;3.80;;
78750;SDS011;68070;50.954;11.060;2024-01-06T16:28:47;6.20;;;4.40;;
78750;SDS011;68070;50.954;11.060;2024-01-06T16:31:12;10.40;;;5.40;;
78750;SDS011;68070;50.954;11.060;2024-01-06T16:33:38;12.60;;;5.60;;
78750;SDS011;68070;50.954;11.060;2024-01-06T16:36:03;8.30;;;4.70;;
78750;SDS011;68070;50.954;11.060;2024-01-06T16:38:30;8.30;;;5.10;;